sensor_id;sensor_type;location;lat;lon;timestamp;P1;durP1;ratioP1;P2;durP2;ratioP2
51612;SDS011;37694;51.748;14.326;2023-04-30T00:01:54;8.45;;;5.68;;
51612;SDS011;37694;51.748;14.326;2023-04-30T00:04:20;5.07;;;4.55;;
51612;SDS011;37694;51.748;14.326;2023-04-30T00:06:45;7.28;;;5.15;;
51612;SDS011;37694;51.748;14.326;2023-04-30T00:09:11;7.35;;;5.80;;
51612;SDS011;37694;51.748;14.326;2023-04-30T00:11:37;11.65;;;4.97;;
51612;SDS011;37694;51.748;14.326;2023-04-30T00:14:02;4.53;;;4.13;;
51612;SDS011;37694;51.748;14.326;2023-04-30T00:16:28;9.02;;;5.25;;
51612;SDS011;37694;51.748;14.326;2023-04-30T00:18:53;6.95;;;4.40;;
51612;SDS011;37694;51.748;14.326;2023-04-30T00:21:19;7.95;;;4.65;;
51612;SDS011;37694;51.748;14.326;2023-04-30T00:23:45;11.23;;;5.53;;
51612;SDS011;37694;51.748;14.326;2023-04-30T00:26:10;5.93;;;5.30;;
51612;SDS011;37694;51.748;14.326;2023-04-30T00:28:36;5.35;;;4.88;;
51612;SDS011;37694;51.748;14.326;2023-04-30T00:31:02;8.63;;;5.05;;
51612;SDS011;37694;51.748;14.326;2023-04-30T00:33:30;6.30;;;4.82;;
51612;SDS011;37694;51.748;14.326;2023-04-30T00:35:56;8.15;;;4.95;;
51612;SDS011;37694;51.748;14.326;2023-04-30T00:38:22;7.82;;;4.80;;
51612;SDS011;37694;51.748;14.326;2023-04-30T00:40:48;5.45;;;4.60;;
51612;SDS011;37694;51.748;14.326;2023-04-30T00:43:14;6.30;;;5.20;;
51612;SDS011;37694;51.748;14.326;2023-04-30T00:45:39;11.50;;;5.25;;
51612;SDS011;37694;51.748;14.326;2023-04-30T00:48:05;5.90;;;5.07;;
51612;SDS011;37694;51.748;14.326;2023-04-30T00:50:31;6.03;;;4.32;;
51612;SDS011;37694;51.748;14.326;2023-04-30T00:53:02;5.53;;;4.55;;
51612;SDS011;37694;51.748;14.326;2023-04-30T00:55:28;5.32;;;4.30;;
51612;SDS011;37694;51.748;14.326;2023-04-30T00:57:54;6.25;;;4.63;;
51612;SDS011;37694;51.748;14.326;2023-04-30T01:00:20;5.97;;;5.28;;
51612;SDS011;37694;51.748;14.326;2023-04-30T01:02:46;6.10;;;5.18;;
51612;SDS011;37694;51.748;14.326;2023-04-30T01:05:13;7.10;;;4.55;;
51612;SDS011;37694;51.748;14.326;2023-04-30T01:07:39;8.60;;;4.97;;
51612;SDS011;37694;51.748;14.326;2023-04-30T01:10:10;5.00;;;4.50;;
51612;SDS011;37694;51.748;14.326;2023-04-30T01:15:21;4.90;;;4.40;;
51612;SDS011;37694;51.748;14.326;2023-04-30T01:17:56;5.95;;;4.38;;
51612;SDS011;37694;51.748;14.326;2023-04-30T01:20:27;5.15;;;4.63;;
51612;SDS011;37694;51.748;14.326;2023-04-30T01:25:59;5.38;;;4.50;;
51612;SDS011;37694;51.748;14.326;2023-04-30T01:28:34;5.70;;;4.95;;
51612;SDS011;37694;51.748;14.326;2023-04-30T01:31:00;5.35;;;4.85;;
51612;SDS011;37694;51.748;14.326;2023-04-30T01:33:26;4.90;;;4.50;;
51612;SDS011;37694;51.748;14.326;2023-04-30T01:36:02;6.10;;;4.65;;
51612;SDS011;37694;51.748;14.326;2023-04-30T01:38:48;7.60;;;4.10;;
51612;SDS011;37694;51.748;14.326;2023-04-30T01:47:42;5.25;;;4.25;;
51612;SDS011;37694;51.748;14.326;2023-04-30T01:53:22;6.25;;;4.53;;
51612;SDS011;37694;51.748;14.326;2023-04-30T01:56:00;5.60;;;4.55;;
51612;SDS011;37694;51.748;14.326;2023-04-30T01:58:28;9.75;;;5.07;;
51612;SDS011;37694;51.748;14.326;2023-04-30T02:00:54;7.82;;;5.03;;
51612;SDS011;37694;51.748;14.326;2023-04-30T02:03:20;4.72;;;4.32;;
51612;SDS011;37694;51.748;14.326;2023-04-30T02:05:46;6.20;;;4.82;;
51612;SDS011;37694;51.748;14.326;2023-04-30T02:08:12;4.95;;;4.45;;
51612;SDS011;37694;51.748;14.326;2023-04-30T02:10:38;5.07;;;4.57;;
51612;SDS011;37694;51.748;14.326;2023-04-30T02:13:04;5.32;;;4.70;;
51612;SDS011;37694;51.748;14.326;2023-04-30T02:15:29;5.55;;;4.85;;
51612;SDS011;37694;51.748;14.326;2023-04-30T02:17:55;8.75;;;4.95;;
51612;SDS011;37694;51.748;14.326;2023-04-30T02:20:21;4.95;;;4.40;;
51612;SDS011;37694;51.748;14.326;2023-04-30T02:22:47;5.82;;;4.50;;
51612;SDS011;37694;51.748;14.326;2023-04-30T02:25:12;4.70;;;4.25;;
51612;SDS011;37694;51.748;14.326;2023-04-30T02:27:38;6.32;;;4.85;;
51612;SDS011;37694;51.748;14.326;2023-04-30T02:30:04;4.97;;;4.32;;
51612;SDS011;37694;51.748;14.326;2023-04-30T02:32:31;5.18;;;4.47;;
51612;SDS011;37694;51.748;14.326;2023-04-30T02:34:56;5.88;;;4.85;;
51612;SDS011;37694;51.748;14.326;2023-04-30T02:37:22;6.53;;;4.13;;
51612;SDS011;37694;51.748;14.326;2023-04-30T02:39:48;4.72;;;4.18;;
51612;SDS011;37694;51.748;14.326;2023-04-30T02:42:14;5.07;;;4.50;;
51612;SDS011;37694;51.748;14.326;2023-04-30T02:44:40;4.20;;;3.80;;
51612;SDS011;37694;51.748;14.326;2023-04-30T02:47:06;5.13;;;4.18;;
51612;SDS011;37694;51.748;14.326;2023-04-30T02:49:31;5.25;;;4.38;;
51612;SDS011;37694;51.748;14.326;2023-04-30T02:51:57;4.82;;;3.92;;
51612;SDS011;37694;51.748;14.326;2023-04-30T02:54:23;8.77;;;4.40;;
51612;SDS011;37694;51.748;14.326;2023-04-30T02:56:48;4.30;;;3.80;;
51612;SDS011;37694;51.748;14.326;2023-04-30T02:59:14;4.68;;;4.28;;
51612;SDS011;37694;51.748;14.326;2023-04-30T03:01:40;4.28;;;3.88;;
51612;SDS011;37694;51.748;14.326;2023-04-30T03:04:05;5.22;;;4.00;;
51612;SDS011;37694;51.748;14.326;2023-04-30T03:06:31;6.72;;;3.92;;
51612;SDS011;37694;51.748;14.326;2023-04-30T03:08:57;5.50;;;4.18;;
51612;SDS011;37694;51.748;14.326;2023-04-30T03:11:24;5.38;;;4.45;;
51612;SDS011;37694;51.748;14.326;2023-04-30T03:13:49;5.03;;;4.43;;
51612;SDS011;37694;51.748;14.326;2023-04-30T03:16:18;4.80;;;4.18;;
51612;SDS011;37694;51.748;14.326;2023-04-30T03:18:46;4.25;;;3.92;;
51612;SDS011;37694;51.748;14.326;2023-04-30T03:21:12;6.00;;;4.38;;
51612;SDS011;37694;51.748;14.326;2023-04-30T03:23:38;4.25;;;3.85;;
51612;SDS011;37694;51.748;14.326;2023-04-30T03:26:04;4.13;;;3.70;;
51612;SDS011;37694;51.748;14.326;2023-04-30T03:28:30;11.00;;;4.82;;
51612;SDS011;37694;51.748;14.326;2023-04-30T03:30:55;5.30;;;4.22;;
51612;SDS011;37694;51.748;14.326;2023-04-30T03:33:23;5.68;;;4.60;;
51612;SDS011;37694;51.748;14.326;2023-04-30T03:35:48;4.85;;;4.35;;
51612;SDS011;37694;51.748;14.326;2023-04-30T03:38:15;6.07;;;4.20;;
51612;SDS011;37694;51.748;14.326;2023-04-30T03:40:41;3.85;;;3.55;;
51612;SDS011;37694;51.748;14.326;2023-04-30T03:43:06;5.03;;;4.13;;
51612;SDS011;37694;51.748;14.326;2023-04-30T03:45:33;4.20;;;3.90;;
51612;SDS011;37694;51.748;14.326;2023-04-30T03:47:58;4.35;;;3.95;;
51612;SDS011;37694;51.748;14.326;2023-04-30T03:50:24;4.80;;;3.53;;
51612;SDS011;37694;51.748;14.326;2023-04-30T03:52:50;3.88;;;3.47;;
51612;SDS011;37694;51.748;14.326;2023-04-30T03:55:15;4.78;;;3.88;;
51612;SDS011;37694;51.748;14.326;2023-04-30T03:57:41;4.63;;;4.22;;
51612;SDS011;37694;51.748;14.326;2023-04-30T04:00:07;4.20;;;3.67;;
51612;SDS011;37694;51.748;14.326;2023-04-30T04:02:37;4.25;;;3.85;;
51612;SDS011;37694;51.748;14.326;2023-04-30T04:05:04;4.18;;;3.75;;
51612;SDS011;37694;51.748;14.326;2023-04-30T04:07:30;9.88;;;3.83;;
51612;SDS011;37694;51.748;14.326;2023-04-30T04:09:56;4.75;;;4.15;;
51612;SDS011;37694;51.748;14.326;2023-04-30T04:12:21;6.45;;;3.83;;
51612;SDS011;37694;51.748;14.326;2023-04-30T04:14:47;4.03;;;3.63;;
51612;SDS011;37694;51.748;14.326;2023-04-30T04:17:13;3.83;;;3.53;;
51612;SDS011;37694;51.748;14.326;2023-04-30T04:19:39;4.80;;;3.78;;
51612;SDS011;37694;51.748;14.326;2023-04-30T04:22:05;4.57;;;3.83;;
51612;SDS011;37694;51.748;14.326;2023-04-30T04:24:31;5.65;;;3.95;;
51612;SDS011;37694;51.748;14.326;2023-04-30T04:26:57;3.97;;;3.55;;
51612;SDS011;37694;51.748;14.326;2023-04-30T04:29:23;3.95;;;3.58;;
51612;SDS011;37694;51.748;14.326;2023-04-30T04:31:49;4.18;;;3.78;;
51612;SDS011;37694;51.748;14.326;2023-04-30T04:34:15;7.00;;;4.00;;
51612;SDS011;37694;51.748;14.326;2023-04-30T04:36:41;4.95;;;3.65;;
51612;SDS011;37694;51.748;14.326;2023-04-30T04:39:07;4.15;;;3.58;;
51612;SDS011;37694;51.748;14.326;2023-04-30T04:41:33;4.97;;;3.78;;
51612;SDS011;37694;51.748;14.326;2023-04-30T04:44:02;4.30;;;3.80;;
51612;SDS011;37694;51.748;14.326;2023-04-30T04:46:28;9.07;;;4.18;;
51612;SDS011;37694;51.748;14.326;2023-04-30T04:48:56;4.40;;;3.38;;
51612;SDS011;37694;51.748;14.326;2023-04-30T04:51:22;3.80;;;3.50;;
51612;SDS011;37694;51.748;14.326;2023-04-30T04:53:48;4.07;;;3.53;;
51612;SDS011;37694;51.748;14.326;2023-04-30T04:56:14;4.03;;;3.63;;
51612;SDS011;37694;51.748;14.326;2023-04-30T04:58:40;4.57;;;3.42;;
51612;SDS011;37694;51.748;14.326;2023-04-30T05:01:06;3.50;;;3.20;;
51612;SDS011;37694;51.748;14.326;2023-04-30T05:03:33;3.90;;;3.60;;
51612;SDS011;37694;51.748;14.326;2023-04-30T05:06:01;4.38;;;3.97;;
51612;SDS011;37694;51.748;14.326;2023-04-30T05:08:30;3.58;;;3.28;;
51612;SDS011;37694;51.748;14.326;2023-04-30T05:10:55;4.00;;;3.70;;
51612;SDS011;37694;51.748;14.326;2023-04-30T05:13:21;4.07;;;3.05;;
51612;SDS011;37694;51.748;14.326;2023-04-30T05:15:50;4.40;;;3.90;;
51612;SDS011;37694;51.748;14.326;2023-04-30T05:18:16;3.30;;;3.00;;
51612;SDS011;37694;51.748;14.326;2023-04-30T05:20:42;6.13;;;3.45;;
51612;SDS011;37694;51.748;14.326;2023-04-30T05:23:08;7.60;;;3.65;;
51612;SDS011;37694;51.748;14.326;2023-04-30T05:25:36;5.13;;;3.53;;
51612;SDS011;37694;51.748;14.326;2023-04-30T05:28:02;8.77;;;3.53;;
51612;SDS011;37694;51.748;14.326;2023-04-30T05:30:28;4.28;;;3.88;;
51612;SDS011;37694;51.748;14.326;2023-04-30T05:32:54;3.55;;;3.25;;
51612;SDS011;37694;51.748;14.326;2023-04-30T05:35:21;6.50;;;3.40;;
51612;SDS011;37694;51.748;14.326;2023-04-30T05:37:47;6.07;;;2.97;;
51612;SDS011;37694;51.748;14.326;2023-04-30T05:40:12;6.53;;;3.42;;
51612;SDS011;37694;51.748;14.326;2023-04-30T05:42:39;7.20;;;3.25;;
51612;SDS011;37694;51.748;14.326;2023-04-30T05:45:05;4.32;;;3.13;;
51612;SDS011;37694;51.748;14.326;2023-04-30T05:47:32;6.63;;;3.78;;
51612;SDS011;37694;51.748;14.326;2023-04-30T05:49:57;5.40;;;3.10;;
51612;SDS011;37694;51.748;14.326;2023-04-30T05:52:23;4.57;;;2.90;;
51612;SDS011;37694;51.748;14.326;2023-04-30T05:54:49;3.42;;;2.88;;
51612;SDS011;37694;51.748;14.326;2023-04-30T05:57:15;4.25;;;2.85;;
51612;SDS011;37694;51.748;14.326;2023-04-30T05:59:41;3.58;;;2.85;;
51612;SDS011;37694;51.748;14.326;2023-04-30T06:02:06;4.80;;;3.15;;
51612;SDS011;37694;51.748;14.326;2023-04-30T06:04:33;4.47;;;3.13;;
51612;SDS011;37694;51.748;14.326;2023-04-30T06:06:58;3.92;;;2.90;;
51612;SDS011;37694;51.748;14.326;2023-04-30T06:09:24;3.00;;;2.80;;
51612;SDS011;37694;51.748;14.326;2023-04-30T06:11:50;5.30;;;2.78;;
51612;SDS011;37694;51.748;14.326;2023-04-30T06:14:16;3.67;;;2.97;;
51612;SDS011;37694;51.748;14.326;2023-04-30T06:16:43;4.68;;;3.60;;
51612;SDS011;37694;51.748;14.326;2023-04-30T06:19:09;3.75;;;2.80;;
51612;SDS011;37694;51.748;14.326;2023-04-30T06:21:35;10.88;;;3.03;;
51612;SDS011;37694;51.748;14.326;2023-04-30T06:24:01;8.43;;;3.30;;
51612;SDS011;37694;51.748;14.326;2023-04-30T06:26:27;4.65;;;2.63;;
51612;SDS011;37694;51.748;14.326;2023-04-30T06:28:53;4.70;;;3.10;;
51612;SDS011;37694;51.748;14.326;2023-04-30T06:31:20;7.47;;;2.95;;
51612;SDS011;37694;51.748;14.326;2023-04-30T06:33:46;4.40;;;2.80;;
51612;SDS011;37694;51.748;14.326;2023-04-30T06:36:11;3.80;;;2.95;;
51612;SDS011;37694;51.748;14.326;2023-04-30T06:38:37;7.13;;;3.10;;
51612;SDS011;37694;51.748;14.326;2023-04-30T06:41:04;5.80;;;3.03;;
51612;SDS011;37694;51.748;14.326;2023-04-30T06:43:30;20.80;;;3.40;;
51612;SDS011;37694;51.748;14.326;2023-04-30T06:45:55;6.75;;;2.63;;
51612;SDS011;37694;51.748;14.326;2023-04-30T06:48:21;3.17;;;2.70;;
51612;SDS011;37694;51.748;14.326;2023-04-30T06:50:47;6.00;;;2.78;;
51612;SDS011;37694;51.748;14.326;2023-04-30T06:53:13;3.20;;;2.72;;
51612;SDS011;37694;51.748;14.326;2023-04-30T06:55:39;6.63;;;3.30;;
51612;SDS011;37694;51.748;14.326;2023-04-30T06:58:06;4.70;;;2.72;;
51612;SDS011;37694;51.748;14.326;2023-04-30T07:00:32;7.13;;;3.63;;
51612;SDS011;37694;51.748;14.326;2023-04-30T07:02:58;3.85;;;2.90;;
51612;SDS011;37694;51.748;14.326;2023-04-30T07:05:26;8.38;;;3.10;;
51612;SDS011;37694;51.748;14.326;2023-04-30T07:07:52;5.10;;;2.78;;
51612;SDS011;37694;51.748;14.326;2023-04-30T07:10:18;9.90;;;2.45;;
51612;SDS011;37694;51.748;14.326;2023-04-30T07:12:44;9.45;;;3.55;;
51612;SDS011;37694;51.748;14.326;2023-04-30T07:15:09;3.40;;;2.45;;
51612;SDS011;37694;51.748;14.326;2023-04-30T07:17:35;6.60;;;2.78;;
51612;SDS011;37694;51.748;14.326;2023-04-30T07:20:02;7.10;;;2.58;;
51612;SDS011;37694;51.748;14.326;2023-04-30T07:22:28;5.47;;;2.85;;
51612;SDS011;37694;51.748;14.326;2023-04-30T07:24:55;2.45;;;2.25;;
51612;SDS011;37694;51.748;14.326;2023-04-30T07:27:21;8.20;;;2.70;;
51612;SDS011;37694;51.748;14.326;2023-04-30T07:29:47;7.75;;;3.03;;
51612;SDS011;37694;51.748;14.326;2023-04-30T07:32:13;4.60;;;2.40;;
51612;SDS011;37694;51.748;14.326;2023-04-30T07:34:40;4.40;;;2.83;;
51612;SDS011;37694;51.748;14.326;2023-04-30T07:37:07;8.70;;;3.00;;
51612;SDS011;37694;51.748;14.326;2023-04-30T07:39:33;9.85;;;2.78;;
51612;SDS011;37694;51.748;14.326;2023-04-30T07:42:00;6.43;;;2.25;;
51612;SDS011;37694;51.748;14.326;2023-04-30T07:44:27;5.63;;;2.40;;
51612;SDS011;37694;51.748;14.326;2023-04-30T07:46:52;6.10;;;3.03;;
51612;SDS011;37694;51.748;14.326;2023-04-30T07:49:18;4.40;;;2.38;;
51612;SDS011;37694;51.748;14.326;2023-04-30T07:51:44;4.13;;;2.53;;
51612;SDS011;37694;51.748;14.326;2023-04-30T07:54:10;4.13;;;2.22;;
51612;SDS011;37694;51.748;14.326;2023-04-30T07:56:36;6.20;;;2.75;;
51612;SDS011;37694;51.748;14.326;2023-04-30T07:59:02;8.55;;;2.67;;
51612;SDS011;37694;51.748;14.326;2023-04-30T08:01:27;2.60;;;2.40;;
51612;SDS011;37694;51.748;14.326;2023-04-30T08:03:53;8.38;;;2.63;;
51612;SDS011;37694;51.748;14.326;2023-04-30T08:06:19;8.85;;;2.80;;
51612;SDS011;37694;51.748;14.326;2023-04-30T08:08:45;5.82;;;2.72;;
51612;SDS011;37694;51.748;14.326;2023-04-30T08:11:10;3.38;;;2.53;;
51612;SDS011;37694;51.748;14.326;2023-04-30T08:13:36;5.38;;;2.53;;
51612;SDS011;37694;51.748;14.326;2023-04-30T08:16:02;9.25;;;3.00;;
51612;SDS011;37694;51.748;14.326;2023-04-30T08:18:28;19.58;;;2.83;;
51612;SDS011;37694;51.748;14.326;2023-04-30T08:20:54;6.90;;;3.08;;
51612;SDS011;37694;51.748;14.326;2023-04-30T08:23:19;7.03;;;2.60;;
51612;SDS011;37694;51.748;14.326;2023-04-30T08:25:45;14.52;;;3.55;;
51612;SDS011;37694;51.748;14.326;2023-04-30T08:28:11;7.43;;;2.75;;
51612;SDS011;37694;51.748;14.326;2023-04-30T08:30:37;5.07;;;2.90;;
51612;SDS011;37694;51.748;14.326;2023-04-30T08:33:03;15.13;;;2.92;;
51612;SDS011;37694;51.748;14.326;2023-04-30T08:35:29;7.40;;;2.88;;
51612;SDS011;37694;51.748;14.326;2023-04-30T08:37:55;11.05;;;3.03;;
51612;SDS011;37694;51.748;14.326;2023-04-30T08:40:20;11.50;;;2.83;;
51612;SDS011;37694;51.748;14.326;2023-04-30T08:42:49;4.35;;;2.45;;
51612;SDS011;37694;51.748;14.326;2023-04-30T08:45:18;12.48;;;2.72;;
51612;SDS011;37694;51.748;14.326;2023-04-30T08:47:44;14.18;;;3.13;;
51612;SDS011;37694;51.748;14.326;2023-04-30T08:50:10;15.02;;;3.20;;
51612;SDS011;37694;51.748;14.326;2023-04-30T08:52:36;9.75;;;2.33;;
51612;SDS011;37694;51.748;14.326;2023-04-30T08:55:05;8.23;;;2.40;;
51612;SDS011;37694;51.748;14.326;2023-04-30T08:57:32;7.20;;;2.20;;
51612;SDS011;37694;51.748;14.326;2023-04-30T08:59:59;9.43;;;2.50;;
51612;SDS011;37694;51.748;14.326;2023-04-30T09:02:24;5.53;;;2.47;;
51612;SDS011;37694;51.748;14.326;2023-04-30T09:04:50;6.60;;;2.40;;
51612;SDS011;37694;51.748;14.326;2023-04-30T09:07:17;7.03;;;2.50;;
51612;SDS011;37694;51.748;14.326;2023-04-30T09:09:43;8.32;;;2.72;;
51612;SDS011;37694;51.748;14.326;2023-04-30T09:17:37;10.27;;;2.85;;
51612;SDS011;37694;51.748;14.326;2023-04-30T09:20:10;9.23;;;2.15;;
51612;SDS011;37694;51.748;14.326;2023-04-30T09:25:03;12.32;;;2.53;;
51612;SDS011;37694;51.748;14.326;2023-04-30T09:27:29;8.30;;;2.40;;
51612;SDS011;37694;51.748;14.326;2023-04-30T09:29:55;5.35;;;2.38;;
51612;SDS011;37694;51.748;14.326;2023-04-30T09:32:20;7.35;;;2.55;;
51612;SDS011;37694;51.748;14.326;2023-04-30T09:34:46;7.50;;;2.88;;
51612;SDS011;37694;51.748;14.326;2023-04-30T09:37:12;4.15;;;2.03;;
51612;SDS011;37694;51.748;14.326;2023-04-30T09:42:17;9.95;;;2.58;;
51612;SDS011;37694;51.748;14.326;2023-04-30T09:44:44;3.92;;;2.78;;
51612;SDS011;37694;51.748;14.326;2023-04-30T09:47:11;8.73;;;2.70;;
51612;SDS011;37694;51.748;14.326;2023-04-30T09:49:39;10.10;;;2.30;;
51612;SDS011;37694;51.748;14.326;2023-04-30T09:52:06;10.50;;;3.22;;
51612;SDS011;37694;51.748;14.326;2023-04-30T09:54:33;8.85;;;2.40;;
51612;SDS011;37694;51.748;14.326;2023-04-30T09:57:00;4.53;;;2.50;;
51612;SDS011;37694;51.748;14.326;2023-04-30T09:59:31;5.32;;;2.47;;
51612;SDS011;37694;51.748;14.326;2023-04-30T10:02:03;8.23;;;2.60;;
51612;SDS011;37694;51.748;14.326;2023-04-30T10:04:34;12.15;;;3.28;;
51612;SDS011;37694;51.748;14.326;2023-04-30T10:07:02;10.45;;;2.70;;
51612;SDS011;37694;51.748;14.326;2023-04-30T10:10:19;7.47;;;2.72;;
51612;SDS011;37694;51.748;14.326;2023-04-30T10:12:38;7.95;;;2.70;;
51612;SDS011;37694;51.748;14.326;2023-04-30T10:15:17;10.60;;;2.60;;
51612;SDS011;37694;51.748;14.326;2023-04-30T10:17:53;6.85;;;2.42;;
51612;SDS011;37694;51.748;14.326;2023-04-30T10:20:26;7.93;;;2.67;;
51612;SDS011;37694;51.748;14.326;2023-04-30T10:22:52;7.85;;;2.92;;
51612;SDS011;37694;51.748;14.326;2023-04-30T10:25:18;8.98;;;2.50;;
51612;SDS011;37694;51.748;14.326;2023-04-30T10:27:46;9.70;;;3.53;;
51612;SDS011;37694;51.748;14.326;2023-04-30T10:30:12;8.95;;;2.42;;
51612;SDS011;37694;51.748;14.326;2023-04-30T10:35:48;13.32;;;2.80;;
51612;SDS011;37694;51.748;14.326;2023-04-30T10:38:20;5.90;;;2.60;;
51612;SDS011;37694;51.748;14.326;2023-04-30T10:40:48;19.42;;;3.17;;
51612;SDS011;37694;51.748;14.326;2023-04-30T10:43:25;17.38;;;2.72;;
51612;SDS011;37694;51.748;14.326;2023-04-30T10:45:57;12.93;;;2.67;;
51612;SDS011;37694;51.748;14.326;2023-04-30T10:48:23;9.52;;;2.58;;
51612;SDS011;37694;51.748;14.326;2023-04-30T10:50:51;7.03;;;2.70;;
51612;SDS011;37694;51.748;14.326;2023-04-30T10:53:19;14.50;;;2.80;;
51612;SDS011;37694;51.748;14.326;2023-04-30T10:56:03;19.02;;;2.58;;
51612;SDS011;37694;51.748;14.326;2023-04-30T10:58:33;19.67;;;2.88;;
51612;SDS011;37694;51.748;14.326;2023-04-30T11:01:15;13.02;;;2.65;;
51612;SDS011;37694;51.748;14.326;2023-04-30T11:06:47;12.13;;;3.25;;
51612;SDS011;37694;51.748;14.326;2023-04-30T11:09:17;12.45;;;3.08;;
51612;SDS011;37694;51.748;14.326;2023-04-30T11:11:43;11.57;;;3.95;;
51612;SDS011;37694;51.748;14.326;2023-04-30T11:14:10;9.10;;;2.97;;
51612;SDS011;37694;51.748;14.326;2023-04-30T11:16:36;9.18;;;2.17;;
51612;SDS011;37694;51.748;14.326;2023-04-30T11:19:05;15.55;;;2.85;;
51612;SDS011;37694;51.748;14.326;2023-04-30T11:27:33;9.50;;;2.70;;
51612;SDS011;37694;51.748;14.326;2023-04-30T11:30:01;18.15;;;3.40;;
51612;SDS011;37694;51.748;14.326;2023-04-30T11:32:33;10.32;;;3.00;;
51612;SDS011;37694;51.748;14.326;2023-04-30T11:35:03;7.28;;;2.20;;
51612;SDS011;37694;51.748;14.326;2023-04-30T11:37:33;13.30;;;3.53;;
51612;SDS011;37694;51.748;14.326;2023-04-30T11:40:06;11.55;;;2.50;;
51612;SDS011;37694;51.748;14.326;2023-04-30T11:42:35;11.32;;;3.35;;
51612;SDS011;37694;51.748;14.326;2023-04-30T11:45:09;8.02;;;3.40;;
51612;SDS011;37694;51.748;14.326;2023-04-30T11:50:08;13.63;;;3.10;;
51612;SDS011;37694;51.748;14.326;2023-04-30T11:52:36;7.15;;;2.67;;
51612;SDS011;37694;51.748;14.326;2023-04-30T11:55:15;8.63;;;2.80;;
51612;SDS011;37694;51.748;14.326;2023-04-30T11:57:45;13.30;;;3.20;;
51612;SDS011;37694;51.748;14.326;2023-04-30T12:02:43;8.55;;;2.58;;
51612;SDS011;37694;51.748;14.326;2023-04-30T12:05:20;13.65;;;3.20;;
51612;SDS011;37694;51.748;14.326;2023-04-30T12:07:48;8.90;;;3.00;;
51612;SDS011;37694;51.748;14.326;2023-04-30T12:10:20;13.15;;;2.53;;
51612;SDS011;37694;51.748;14.326;2023-04-30T12:12:48;14.20;;;3.35;;
51612;SDS011;37694;51.748;14.326;2023-04-30T12:15:18;13.02;;;3.42;;
51612;SDS011;37694;51.748;14.326;2023-04-30T12:17:50;18.35;;;4.43;;
51612;SDS011;37694;51.748;14.326;2023-04-30T12:20:28;16.48;;;4.40;;
51612;SDS011;37694;51.748;14.326;2023-04-30T12:22:56;25.98;;;4.57;;
51612;SDS011;37694;51.748;14.326;2023-04-30T12:25:22;20.52;;;4.60;;
51612;SDS011;37694;51.748;14.326;2023-04-30T12:27:49;17.95;;;4.50;;
51612;SDS011;37694;51.748;14.326;2023-04-30T12:30:20;14.57;;;4.10;;
51612;SDS011;37694;51.748;14.326;2023-04-30T12:32:52;18.77;;;4.40;;
51612;SDS011;37694;51.748;14.326;2023-04-30T12:35:21;10.27;;;3.35;;
51612;SDS011;37694;51.748;14.326;2023-04-30T12:37:49;13.30;;;3.38;;
51612;SDS011;37694;51.748;14.326;2023-04-30T12:40:20;11.60;;;2.55;;
51612;SDS011;37694;51.748;14.326;2023-04-30T12:42:51;10.50;;;2.90;;
51612;SDS011;37694;51.748;14.326;2023-04-30T12:48:10;5.90;;;2.20;;
51612;SDS011;37694;51.748;14.326;2023-04-30T12:50:37;6.25;;;2.30;;
51612;SDS011;37694;51.748;14.326;2023-04-30T12:53:06;6.20;;;2.10;;
51612;SDS011;37694;51.748;14.326;2023-04-30T12:55:32;5.28;;;1.85;;
51612;SDS011;37694;51.748;14.326;2023-04-30T13:03:12;6.03;;;2.17;;
51612;SDS011;37694;51.748;14.326;2023-04-30T13:05:39;8.90;;;1.95;;
51612;SDS011;37694;51.748;14.326;2023-04-30T13:08:05;4.47;;;1.40;;
51612;SDS011;37694;51.748;14.326;2023-04-30T13:10:31;5.47;;;2.25;;
51612;SDS011;37694;51.748;14.326;2023-04-30T13:12:57;5.00;;;1.45;;
51612;SDS011;37694;51.748;14.326;2023-04-30T13:15:24;5.65;;;1.90;;
51612;SDS011;37694;51.748;14.326;2023-04-30T13:17:50;7.03;;;1.98;;
51612;SDS011;37694;51.748;14.326;2023-04-30T13:20:16;6.25;;;2.10;;
51612;SDS011;37694;51.748;14.326;2023-04-30T13:22:42;5.13;;;1.92;;
51612;SDS011;37694;51.748;14.326;2023-04-30T13:25:08;6.90;;;1.95;;
51612;SDS011;37694;51.748;14.326;2023-04-30T13:27:34;4.05;;;1.92;;
51612;SDS011;37694;51.748;14.326;2023-04-30T13:30:01;4.10;;;1.83;;
51612;SDS011;37694;51.748;14.326;2023-04-30T13:32:27;4.15;;;1.50;;
51612;SDS011;37694;51.748;14.326;2023-04-30T13:34:53;4.22;;;1.90;;
51612;SDS011;37694;51.748;14.326;2023-04-30T13:37:20;4.72;;;2.08;;
51612;SDS011;37694;51.748;14.326;2023-04-30T13:39:46;6.35;;;1.60;;
51612;SDS011;37694;51.748;14.326;2023-04-30T13:42:15;6.60;;;1.98;;
51612;SDS011;37694;51.748;14.326;2023-04-30T13:44:41;4.30;;;1.60;;
51612;SDS011;37694;51.748;14.326;2023-04-30T13:47:09;4.72;;;2.17;;
51612;SDS011;37694;51.748;14.326;2023-04-30T13:49:35;5.80;;;1.58;;
51612;SDS011;37694;51.748;14.326;2023-04-30T13:52:04;5.95;;;1.65;;
51612;SDS011;37694;51.748;14.326;2023-04-30T13:54:30;3.85;;;1.98;;
51612;SDS011;37694;51.748;14.326;2023-04-30T13:56:56;4.63;;;1.92;;
51612;SDS011;37694;51.748;14.326;2023-04-30T13:59:23;7.30;;;1.80;;
51612;SDS011;37694;51.748;14.326;2023-04-30T14:01:49;8.63;;;1.77;;
51612;SDS011;37694;51.748;14.326;2023-04-30T14:04:15;3.75;;;1.27;;
51612;SDS011;37694;51.748;14.326;2023-04-30T14:06:41;3.17;;;1.80;;
51612;SDS011;37694;51.748;14.326;2023-04-30T14:09:07;4.13;;;1.50;;
51612;SDS011;37694;51.748;14.326;2023-04-30T14:11:33;5.20;;;2.10;;
51612;SDS011;37694;51.748;14.326;2023-04-30T14:13:58;1.92;;;1.23;;
51612;SDS011;37694;51.748;14.326;2023-04-30T14:16:24;5.38;;;1.77;;
51612;SDS011;37694;51.748;14.326;2023-04-30T14:18:50;4.85;;;1.73;;
51612;SDS011;37694;51.748;14.326;2023-04-30T14:21:15;5.78;;;2.13;;
51612;SDS011;37694;51.748;14.326;2023-04-30T14:23:41;4.28;;;1.85;;
51612;SDS011;37694;51.748;14.326;2023-04-30T14:26:10;3.28;;;2.10;;
51612;SDS011;37694;51.748;14.326;2023-04-30T14:28:36;4.50;;;1.80;;
51612;SDS011;37694;51.748;14.326;2023-04-30T14:31:02;5.57;;;2.55;;
51612;SDS011;37694;51.748;14.326;2023-04-30T14:33:28;3.67;;;2.20;;
51612;SDS011;37694;51.748;14.326;2023-04-30T14:35:55;4.70;;;1.92;;
51612;SDS011;37694;51.748;14.326;2023-04-30T14:38:20;3.92;;;1.65;;
51612;SDS011;37694;51.748;14.326;2023-04-30T14:40:46;5.80;;;2.35;;
51612;SDS011;37694;51.748;14.326;2023-04-30T14:43:11;3.67;;;1.70;;
51612;SDS011;37694;51.748;14.326;2023-04-30T14:45:37;6.85;;;1.75;;
51612;SDS011;37694;51.748;14.326;2023-04-30T14:48:04;6.15;;;2.10;;
51612;SDS011;37694;51.748;14.326;2023-04-30T14:50:30;5.03;;;1.95;;
51612;SDS011;37694;51.748;14.326;2023-04-30T14:52:56;4.00;;;1.67;;
51612;SDS011;37694;51.748;14.326;2023-04-30T14:55:22;6.95;;;2.35;;
51612;SDS011;37694;51.748;14.326;2023-04-30T14:57:47;5.38;;;2.38;;
51612;SDS011;37694;51.748;14.326;2023-04-30T15:00:13;4.00;;;1.92;;
51612;SDS011;37694;51.748;14.326;2023-04-30T15:02:40;3.15;;;1.90;;
51612;SDS011;37694;51.748;14.326;2023-04-30T15:05:06;5.40;;;1.90;;
51612;SDS011;37694;51.748;14.326;2023-04-30T15:07:32;3.88;;;1.90;;
51612;SDS011;37694;51.748;14.326;2023-04-30T15:09:58;3.53;;;1.70;;
51612;SDS011;37694;51.748;14.326;2023-04-30T15:12:24;4.40;;;1.70;;
51612;SDS011;37694;51.748;14.326;2023-04-30T15:14:50;3.88;;;1.67;;
51612;SDS011;37694;51.748;14.326;2023-04-30T15:17:16;4.72;;;1.73;;
51612;SDS011;37694;51.748;14.326;2023-04-30T15:19:41;3.20;;;1.63;;
51612;SDS011;37694;51.748;14.326;2023-04-30T15:22:07;4.15;;;1.98;;
51612;SDS011;37694;51.748;14.326;2023-04-30T15:24:33;5.00;;;2.22;;